createdAt,value
2019-02-16T00:01:57.544Z,35.47
2019-02-16T00:04:25.082Z,36.57
2019-02-16T00:06:52.633Z,43.83
2019-02-16T00:09:20.133Z,45.87
2019-02-16T00:11:47.731Z,34.87
2019-02-16T00:14:15.347Z,33.97
2019-02-16T00:16:42.847Z,39.43
2019-02-16T00:19:10.350Z,39.33
2019-02-16T00:21:37.892Z,39.20
2019-02-16T00:24:05.379Z,43.80
2019-02-16T00:26:32.890Z,51.97
2019-02-16T00:29:00.459Z,51.57
2019-02-16T00:31:27.950Z,36.43
2019-02-16T00:33:55.473Z,33.23
2019-02-16T00:36:23.031Z,27.00
2019-02-16T00:38:50.551Z,23.30
2019-02-16T00:41:18.061Z,25.10
2019-02-16T00:43:45.612Z,24.03
2019-02-16T00:46:13.104Z,22.43
2019-02-16T00:48:40.640Z,22.73
2019-02-16T00:51:13.469Z,23.13
2019-02-16T00:53:37.498Z,21.30
2019-02-16T00:56:05.053Z,22.53
2019-02-16T00:58:32.618Z,18.47
2019-02-16T01:01:00.156Z,19.93
2019-02-16T01:03:27.667Z,20.07
2019-02-16T01:05:55.235Z,20.60
2019-02-16T01:08:22.846Z,19.13
2019-02-16T01:10:50.353Z,19.90
2019-02-16T01:13:17.951Z,21.87
2019-02-16T01:15:45.456Z,20.77
2019-02-16T01:18:12.970Z,21.20
2019-02-16T01:20:40.532Z,20.37
2019-02-16T01:23:08.056Z,22.27
2019-02-16T01:25:35.559Z,22.77
2019-02-16T01:28:03.090Z,22.97
2019-02-16T01:30:30.591Z,22.90
2019-02-16T01:32:58.121Z,20.83
2019-02-16T01:35:25.644Z,18.40
2019-02-16T01:37:53.204Z,20.00
2019-02-16T01:40:20.671Z,20.77
2019-02-16T01:42:48.182Z,20.83
2019-02-16T01:45:15.699Z,20.53
2019-02-16T01:47:43.206Z,19.93
2019-02-16T01:50:10.712Z,18.67
2019-02-16T01:52:38.218Z,15.87
2019-02-16T01:55:08.013Z,19.00
2019-02-16T01:57:35.548Z,19.60
2019-02-16T02:00:03.278Z,20.17
2019-02-16T02:02:30.782Z,21.10
2019-02-16T02:04:58.330Z,20.40
2019-02-16T02:07:25.840Z,21.50
2019-02-16T02:09:53.385Z,20.80
2019-02-16T02:12:20.934Z,30.13
2019-02-16T02:14:48.461Z,23.53
2019-02-16T02:17:15.982Z,22.67
2019-02-16T02:19:43.516Z,22.63
2019-02-16T02:22:11.017Z,24.33
2019-02-16T02:24:38.546Z,25.03
2019-02-16T02:27:06.055Z,25.87
2019-02-16T02:29:33.548Z,23.03
2019-02-16T02:32:01.083Z,23.53
2019-02-16T02:34:28.615Z,24.50
2019-02-16T02:36:56.130Z,28.00
2019-02-16T02:39:23.642Z,31.70
2019-02-16T02:41:51.149Z,30.10
2019-02-16T02:44:18.671Z,30.03
2019-02-16T02:46:46.187Z,31.90
2019-02-16T02:49:13.681Z,30.40
2019-02-16T02:51:51.531Z,36.47
2019-02-16T02:54:10.511Z,49.67
2019-02-16T02:56:38.005Z,44.07
2019-02-16T02:59:05.555Z,63.37
2019-02-16T03:01:33.056Z,73.97
2019-02-16T03:04:00.536Z,51.50
2019-02-16T03:06:28.093Z,57.87
2019-02-16T03:08:55.613Z,55.07
2019-02-16T03:11:23.129Z,71.70
2019-02-16T03:13:50.630Z,50.60
2019-02-16T03:16:18.101Z,45.87
2019-02-16T03:18:45.641Z,39.73
2019-02-16T03:21:13.195Z,36.43
2019-02-16T03:23:40.776Z,40.17
2019-02-16T03:26:48.211Z,38.10
2019-02-16T03:29:58.331Z,36.80
2019-02-16T03:33:08.457Z,38.03
2019-02-16T03:36:26.594Z,36.20
2019-02-16T03:39:05.064Z,36.20
2019-02-16T03:41:32.827Z,31.80
2019-02-16T03:44:00.327Z,31.07
2019-02-16T03:46:27.853Z,26.97
2019-02-16T03:48:55.329Z,32.20
2019-02-16T03:51:22.834Z,31.37
2019-02-16T03:53:50.358Z,32.40
2019-02-16T03:56:17.878Z,26.00
2019-02-16T03:58:45.386Z,26.87
2019-02-16T04:01:12.894Z,26.57
2019-02-16T04:03:40.449Z,25.67
2019-02-16T04:06:07.945Z,25.43
2019-02-16T04:08:35.443Z,20.57
2019-02-16T04:11:02.989Z,21.47
2019-02-16T04:13:30.885Z,23.80
2019-02-16T04:15:58.396Z,26.20
2019-02-16T04:18:25.946Z,24.63
2019-02-16T04:20:53.457Z,23.33
2019-02-16T04:23:20.981Z,24.93
2019-02-16T04:25:48.555Z,25.70
2019-02-16T04:28:16.076Z,27.90
2019-02-16T04:30:43.568Z,26.43
2019-02-16T04:33:11.079Z,25.13
2019-02-16T04:35:38.645Z,23.83
2019-02-16T04:38:06.269Z,22.30
2019-02-16T04:40:33.811Z,25.47
2019-02-16T04:43:01.334Z,22.07
2019-02-16T04:45:28.825Z,23.20
2019-02-16T04:47:56.362Z,23.63
2019-02-16T04:50:23.876Z,21.00
2019-02-16T04:52:51.371Z,22.67
2019-02-16T04:55:18.861Z,24.17
2019-02-16T04:57:46.414Z,22.43
2019-02-16T05:00:13.895Z,25.00
2019-02-16T05:02:41.401Z,23.57
2019-02-16T05:05:08.939Z,23.60
2019-02-16T05:07:36.423Z,24.93
2019-02-16T05:10:04.414Z,22.03
2019-02-16T05:12:31.937Z,23.37
2019-02-16T05:14:59.535Z,26.40
2019-02-16T05:17:27.040Z,24.77
2019-02-16T05:19:54.567Z,24.30
2019-02-16T05:22:22.101Z,26.93
2019-02-16T05:24:49.594Z,25.20
2019-02-16T05:27:17.127Z,27.37
2019-02-16T05:29:44.611Z,25.83
2019-02-16T05:32:12.167Z,27.27
2019-02-16T05:34:39.646Z,27.03
2019-02-16T05:37:07.134Z,26.90
2019-02-16T05:39:34.653Z,30.20
2019-02-16T05:42:02.155Z,27.73
2019-02-16T05:44:29.694Z,26.13
2019-02-16T05:46:57.369Z,27.57
2019-02-16T05:49:24.877Z,27.13
2019-02-16T05:51:52.417Z,22.67
2019-02-16T05:54:19.886Z,27.00
2019-02-16T05:56:47.394Z,25.73
2019-02-16T05:59:14.927Z,29.20
2019-02-16T06:01:42.432Z,30.77
2019-02-16T06:04:09.925Z,23.33
2019-02-16T06:06:37.475Z,29.40
2019-02-16T06:09:05.201Z,32.20
2019-02-16T06:11:32.713Z,41.43
2019-02-16T06:14:00.225Z,37.20
2019-02-16T06:16:27.761Z,30.93
2019-02-16T06:18:55.278Z,30.73
2019-02-16T06:21:22.771Z,27.57
2019-02-16T06:23:50.297Z,30.93
2019-02-16T06:26:17.802Z,41.67
2019-02-16T06:28:45.329Z,48.87
2019-02-16T06:31:12.841Z,55.33
2019-02-16T06:33:40.354Z,40.70
2019-02-16T06:36:17.121Z,38.37
2019-02-16T06:38:44.642Z,23.63
2019-02-16T06:41:12.149Z,24.47
2019-02-16T06:43:39.658Z,17.97
2019-02-16T06:46:07.529Z,17.10
2019-02-16T06:48:35.068Z,17.23
2019-02-16T06:51:02.561Z,18.23
2019-02-16T06:53:30.081Z,16.77
2019-02-16T06:56:05.016Z,18.97
2019-02-16T06:58:32.613Z,15.90
2019-02-16T07:01:00.130Z,15.53
2019-02-16T07:03:27.661Z,16.13
2019-02-16T07:05:55.189Z,15.27
2019-02-16T07:08:22.669Z,15.73
2019-02-16T07:10:50.233Z,15.03
2019-02-16T07:13:17.752Z,14.47
2019-02-16T07:15:50.499Z,15.50
2019-02-16T07:18:33.954Z,14.37
2019-02-16T07:21:01.517Z,14.43
2019-02-16T07:23:29.013Z,18.83
2019-02-16T07:25:56.609Z,18.63
2019-02-16T07:28:24.157Z,15.63
2019-02-16T07:30:51.667Z,14.83
2019-02-16T07:33:19.177Z,17.37
2019-02-16T07:35:46.725Z,19.17
2019-02-16T07:38:14.213Z,16.97
2019-02-16T07:40:41.737Z,16.03
2019-02-16T07:43:18.806Z,16.73
2019-02-16T07:46:01.791Z,17.07
2019-02-16T07:48:39.659Z,17.97
2019-02-16T07:51:35.708Z,18.57
2019-02-16T07:54:21.413Z,16.93
2019-02-16T07:56:56.337Z,16.70
2019-02-16T07:59:31.944Z,16.23
2019-02-16T08:02:17.615Z,17.17
2019-02-16T08:05:10.211Z,19.33
2019-02-16T08:08:12.321Z,20.57
2019-02-16T08:10:59.362Z,21.03
2019-02-16T08:13:30.961Z,27.07
2019-02-16T08:16:18.038Z,27.10
2019-02-16T08:19:00.885Z,24.33
2019-02-16T08:21:51.657Z,25.87
2019-02-16T08:24:38.690Z,20.87
2019-02-16T08:27:23.273Z,20.97
2019-02-16T08:30:28.376Z,21.13
2019-02-16T08:33:14.351Z,21.60
2019-02-16T08:36:00.380Z,20.20
2019-02-16T08:38:37.377Z,19.60
2019-02-16T08:41:42.440Z,21.47
2019-02-16T08:44:24.165Z,23.20
2019-02-16T08:47:17.125Z,26.80
2019-02-16T08:50:10.161Z,23.67
2019-02-16T08:52:44.657Z,26.60
2019-02-16T08:55:34.685Z,26.00
2019-02-16T08:58:11.869Z,28.47
2019-02-16T09:00:57.250Z,36.10
2019-02-16T09:03:42.721Z,25.73
2019-02-16T09:06:29.744Z,22.47
2019-02-16T09:09:19.559Z,20.77
2019-02-16T09:12:03.171Z,18.80
2019-02-16T09:15:02.457Z,18.47
2019-02-16T09:17:55.268Z,19.07
2019-02-16T09:20:29.743Z,17.57
2019-02-16T09:23:19.473Z,16.13
2019-02-16T09:26:04.869Z,16.60
2019-02-16T09:28:55.086Z,16.90
2019-02-16T09:31:44.956Z,16.27
2019-02-16T09:34:21.991Z,16.80
2019-02-16T09:36:58.609Z,18.20
2019-02-16T09:39:51.571Z,15.80
2019-02-16T09:42:41.449Z,17.77
2019-02-16T09:45:17.490Z,18.80
2019-02-16T09:48:07.493Z,20.87
2019-02-16T09:50:58.057Z,19.67
2019-02-16T09:53:45.147Z,18.37
2019-02-16T09:56:34.756Z,20.03
2019-02-16T09:59:20.674Z,20.77
2019-02-16T10:02:01.866Z,20.40
2019-02-16T10:04:46.981Z,21.00
2019-02-16T10:07:34.007Z,20.47
2019-02-16T10:10:12.215Z,21.30
2019-02-16T10:13:04.058Z,22.13
2019-02-16T10:15:51.183Z,24.87
2019-02-16T10:18:41.466Z,25.00
2019-02-16T10:21:28.534Z,23.57
2019-02-16T10:24:06.946Z,25.90
2019-02-16T10:26:56.802Z,26.30
2019-02-16T10:29:53.099Z,25.83
2019-02-16T10:32:55.137Z,27.33
2019-02-16T10:35:51.071Z,33.97
2019-02-16T10:38:41.259Z,30.27
2019-02-16T10:41:26.897Z,22.43
2019-02-16T10:44:13.935Z,25.97
2019-02-16T10:47:03.705Z,28.13
2019-02-16T10:50:03.127Z,25.63
2019-02-16T10:53:02.386Z,25.67
2019-02-16T10:55:49.425Z,24.50
2019-02-16T10:58:34.927Z,25.97
2019-02-16T11:01:20.578Z,26.90
2019-02-16T11:04:07.336Z,26.83
2019-02-16T11:06:42.282Z,32.83
2019-02-16T11:09:19.513Z,30.57
2019-02-16T11:12:12.696Z,28.43
2019-02-16T11:15:05.709Z,26.07
2019-02-16T11:18:07.852Z,25.63
2019-02-16T11:20:53.819Z,28.37
2019-02-16T11:23:50.181Z,27.77
2019-02-16T11:26:35.324Z,30.33
2019-02-16T11:29:22.327Z,28.50
2019-02-16T11:32:09.378Z,26.37
2019-02-16T11:34:59.687Z,27.83
2019-02-16T11:37:45.751Z,26.23
2019-02-16T11:40:31.439Z,26.97
2019-02-16T11:43:05.118Z,28.00
2019-02-16T11:45:40.182Z,28.13
2019-02-16T11:48:27.212Z,25.77
2019-02-16T11:51:10.906Z,25.27
2019-02-16T11:53:47.717Z,20.37
2019-02-16T11:56:37.764Z,20.87
2019-02-16T11:59:36.789Z,21.20
2019-02-16T12:02:18.760Z,22.43
2019-02-16T12:05:18.263Z,21.37
2019-02-16T12:08:00.165Z,21.53
2019-02-16T12:10:41.351Z,23.07
2019-02-16T12:13:43.833Z,21.87
2019-02-16T12:16:22.377Z,21.20
2019-02-16T12:19:08.079Z,21.23
2019-02-16T12:22:12.237Z,20.33
2019-02-16T12:25:06.498Z,19.93
2019-02-16T12:27:41.763Z,19.53
2019-02-16T12:30:31.837Z,21.77
2019-02-16T12:33:11.410Z,23.90
2019-02-16T12:35:53.145Z,25.97
2019-02-16T12:38:38.487Z,22.90
2019-02-16T12:41:28.572Z,22.20
2019-02-16T12:44:27.414Z,24.13
2019-02-16T12:47:18.659Z,24.97
2019-02-16T12:50:01.625Z,26.67
2019-02-16T12:52:40.547Z,25.63
2019-02-16T12:55:26.408Z,25.83
2019-02-16T12:57:59.037Z,23.90
2019-02-16T13:00:43.312Z,22.37
2019-02-16T13:03:34.789Z,25.90
2019-02-16T13:06:18.077Z,24.87
2019-02-16T13:09:05.178Z,29.17
2019-02-16T13:11:59.680Z,27.17
2019-02-16T13:14:41.720Z,23.57
2019-02-16T13:17:33.821Z,24.67
2019-02-16T13:20:07.282Z,21.90
2019-02-16T13:22:52.693Z,25.83
2019-02-16T13:25:40.766Z,23.97
2019-02-16T13:28:22.949Z,22.53
2019-02-16T13:31:13.464Z,23.73
2019-02-16T13:33:59.362Z,22.23
2019-02-16T13:36:44.449Z,20.90
2019-02-16T13:39:30.072Z,22.20
2019-02-16T13:42:12.951Z,22.60
2019-02-16T13:45:00.300Z,19.80
2019-02-16T13:47:47.447Z,20.00
2019-02-16T13:50:46.611Z,19.73
2019-02-16T13:53:39.785Z,17.60
2019-02-16T13:56:23.483Z,19.00
2019-02-16T13:59:16.844Z,17.17
2019-02-16T14:02:09.984Z,16.83
2019-02-16T14:05:03.162Z,17.33
2019-02-16T14:07:53.015Z,15.93
2019-02-16T14:10:26.211Z,16.67
2019-02-16T14:13:08.128Z,17.47
2019-02-16T14:15:40.771Z,17.53
2019-02-16T14:18:08.413Z,17.27
2019-02-16T14:20:36.082Z,16.13
2019-02-16T14:23:03.709Z,16.53
2019-02-16T14:25:45.858Z,16.30
2019-02-16T14:28:13.688Z,16.90
2019-02-16T14:30:41.374Z,15.93
2019-02-16T14:33:09.017Z,16.70
2019-02-16T14:35:36.627Z,15.23
2019-02-16T14:38:15.077Z,16.53
2019-02-16T14:40:42.682Z,14.80
2019-02-16T14:43:10.255Z,16.47
2019-02-16T14:45:39.475Z,15.53
2019-02-16T14:48:07.133Z,15.23
2019-02-16T14:50:34.790Z,17.13
2019-02-16T14:53:02.433Z,15.60
2019-02-16T14:55:30.030Z,16.67
2019-02-16T14:57:57.652Z,17.23
2019-02-16T15:00:25.239Z,16.00
2019-02-16T15:02:52.828Z,16.97
2019-02-16T15:05:20.502Z,20.23
2019-02-16T15:07:48.034Z,21.13
2019-02-16T15:10:15.732Z,22.03
2019-02-16T15:12:43.379Z,26.13
2019-02-16T15:15:11.144Z,24.73
2019-02-16T15:17:38.698Z,26.50
2019-02-16T15:20:07.921Z,27.97
2019-02-16T15:22:35.474Z,28.90
2019-02-16T15:25:03.204Z,29.67
2019-02-16T15:27:30.953Z,28.10
2019-02-16T15:29:58.535Z,31.00
2019-02-16T15:32:26.115Z,29.70
2019-02-16T15:34:53.686Z,29.50
2019-02-16T15:37:21.274Z,32.00
2019-02-16T15:39:48.865Z,31.27
2019-02-16T15:42:16.502Z,31.80
2019-02-16T15:44:44.054Z,30.53
2019-02-16T15:47:11.588Z,32.00
2019-02-16T15:49:41.095Z,32.80
2019-02-16T15:52:08.651Z,36.63
2019-02-16T15:54:36.307Z,41.47
2019-02-16T15:57:03.871Z,53.40
2019-02-16T15:59:35.169Z,57.03
2019-02-16T16:02:01.270Z,53.63
2019-02-16T16:04:28.889Z,46.37
2019-02-16T16:06:56.419Z,51.13
2019-02-16T16:09:39.045Z,54.07
2019-02-16T16:12:28.150Z,58.93
2019-02-16T16:15:13.815Z,58.50
2019-02-16T16:18:03.629Z,52.20
2019-02-16T16:20:56.324Z,55.30
2019-02-16T16:23:42.039Z,54.83
2019-02-16T16:26:27.878Z,55.77
2019-02-16T16:29:03.382Z,55.53
2019-02-16T16:31:49.364Z,59.90
2019-02-16T16:34:32.748Z,62.17
2019-02-16T16:37:16.350Z,62.23
2019-02-16T16:40:09.705Z,62.87
2019-02-16T16:43:04.238Z,59.10
2019-02-16T16:45:49.936Z,53.17
2019-02-16T16:48:43.201Z,53.57
2019-02-16T16:51:30.306Z,53.20
2019-02-16T16:54:12.276Z,52.97
2019-02-16T16:56:54.266Z,50.40
2019-02-16T16:59:40.084Z,48.70
2019-02-16T17:02:34.082Z,52.37
2019-02-16T17:05:36.582Z,56.03
2019-02-16T17:08:15.218Z,55.83
2019-02-16T17:10:51.490Z,59.80
2019-02-16T17:13:30.501Z,60.87
2019-02-16T17:16:16.411Z,58.10
2019-02-16T17:19:18.969Z,54.10
2019-02-16T17:21:54.889Z,54.27
2019-02-16T17:24:46.360Z,54.47
2019-02-16T17:27:23.825Z,55.00
2019-02-16T17:30:09.582Z,53.40
2019-02-16T17:32:56.696Z,49.73
2019-02-16T17:35:49.496Z,46.87
2019-02-16T17:38:35.300Z,47.67
2019-02-16T17:41:20.834Z,47.73
2019-02-16T17:44:26.439Z,48.00
2019-02-16T17:47:16.041Z,46.17
2019-02-16T17:50:06.049Z,45.33
2019-02-16T17:52:51.530Z,48.70
2019-02-16T17:55:38.624Z,47.37
2019-02-16T17:58:28.744Z,48.33
2019-02-16T18:01:02.572Z,49.17
2019-02-16T18:03:57.250Z,53.47
2019-02-16T18:06:42.452Z,50.13
2019-02-16T18:09:25.160Z,50.67
2019-02-16T18:12:10.909Z,44.57
2019-02-16T18:14:47.148Z,50.47
2019-02-16T18:17:34.292Z,46.30
2019-02-16T18:20:24.466Z,50.37
2019-02-16T18:23:14.440Z,50.90
2019-02-16T18:25:52.808Z,51.27
2019-02-16T18:28:32.317Z,50.97
2019-02-16T18:31:25.355Z,50.57
2019-02-16T18:34:07.602Z,50.33
2019-02-16T18:37:06.683Z,50.23
2019-02-16T18:40:01.871Z,48.07
2019-02-16T18:42:47.629Z,49.03
2019-02-16T18:45:29.716Z,48.20
2019-02-16T18:48:28.578Z,47.10
2019-02-16T18:51:18.468Z,47.73
2019-02-16T18:54:08.834Z,45.00
2019-02-16T18:56:43.901Z,50.23
2019-02-16T18:59:19.277Z,52.30
2019-02-16T19:02:00.050Z,50.40
2019-02-16T19:04:49.410Z,51.90
2019-02-16T19:07:39.312Z,49.97
2019-02-16T19:10:29.810Z,46.87
2019-02-16T19:13:09.757Z,49.00
2019-02-16T19:15:46.716Z,49.63
2019-02-16T19:18:32.382Z,49.30
2019-02-16T19:21:18.157Z,51.10
2019-02-16T19:23:50.709Z,51.60
2019-02-16T19:26:49.782Z,51.03
2019-02-16T19:29:42.785Z,53.20
2019-02-16T19:32:42.204Z,50.37
2019-02-16T19:35:29.425Z,46.93
2019-02-16T19:38:25.342Z,51.67
2019-02-16T19:40:59.760Z,51.13
2019-02-16T19:43:39.360Z,51.67
2019-02-16T19:46:26.462Z,51.87
2019-02-16T19:49:05.045Z,54.70
2019-02-16T19:51:50.429Z,52.53
2019-02-16T19:54:36.172Z,56.00
2019-02-16T19:57:27.228Z,54.43
2019-02-16T20:00:27.644Z,52.47
2019-02-16T20:03:17.602Z,55.47
2019-02-16T20:06:01.954Z,55.27
2019-02-16T20:08:48.774Z,52.83
2019-02-16T20:11:31.818Z,51.63
2019-02-16T20:14:18.886Z,53.30
2019-02-16T20:17:15.018Z,51.97
2019-02-16T20:20:04.927Z,53.77
2019-02-16T20:22:51.957Z,50.17
2019-02-16T20:25:48.141Z,49.63
2019-02-16T20:28:45.658Z,50.27
2019-02-16T20:31:39.153Z,50.30
2019-02-16T20:34:13.730Z,51.00
2019-02-16T20:36:46.247Z,51.17
2019-02-16T20:39:44.808Z,52.53
2019-02-16T20:42:28.008Z,52.23
2019-02-16T20:45:27.191Z,49.87
2019-02-16T20:48:20.529Z,56.33
2019-02-16T20:51:10.702Z,54.63
2019-02-16T20:54:12.968Z,54.33
2019-02-16T20:56:46.196Z,58.27
2019-02-16T20:59:42.050Z,54.00
2019-02-16T21:02:27.557Z,54.17
2019-02-16T21:05:13.420Z,58.23
2019-02-16T21:08:03.635Z,53.73
2019-02-16T21:10:41.234Z,56.13
2019-02-16T21:13:24.037Z,56.73
2019-02-16T21:16:09.235Z,56.27
2019-02-16T21:18:55.260Z,56.97
2019-02-16T21:21:54.443Z,52.03
2019-02-16T21:24:43.218Z,53.03
2019-02-16T21:27:28.900Z,53.13
2019-02-16T21:30:14.233Z,50.30
2019-02-16T21:32:50.765Z,52.70
2019-02-16T21:35:53.075Z,50.57
2019-02-16T21:38:29.970Z,49.27
2019-02-16T21:41:05.900Z,51.07
2019-02-16T21:44:04.818Z,52.83
2019-02-16T21:46:39.367Z,53.00
2019-02-16T21:49:25.122Z,53.93
2019-02-16T21:52:18.965Z,53.00
2019-02-16T21:55:01.522Z,52.20
2019-02-16T21:57:48.608Z,53.37
2019-02-16T22:00:50.621Z,53.60
2019-02-16T22:03:26.245Z,51.93
2019-02-16T22:06:25.327Z,52.93
2019-02-16T22:09:21.475Z,64.80
2019-02-16T22:12:17.094Z,62.80
2019-02-16T22:14:44.662Z,54.60
2019-02-16T22:17:12.214Z,56.03
2019-02-16T22:19:39.841Z,53.67
2019-02-16T22:22:07.476Z,54.60
2019-02-16T22:24:35.077Z,54.50
2019-02-16T22:27:02.771Z,51.60
2019-02-16T22:29:30.613Z,57.30
2019-02-16T22:31:58.169Z,60.60
2019-02-16T22:34:25.803Z,57.73
2019-02-16T22:36:53.572Z,54.83
2019-02-16T22:39:21.235Z,58.23
2019-02-16T22:41:49.057Z,57.50
2019-02-16T22:44:16.763Z,54.00
2019-02-16T22:46:44.359Z,53.40
2019-02-16T22:49:13.637Z,56.63
2019-02-16T22:51:41.265Z,56.27
2019-02-16T22:54:09.369Z,59.13
2019-02-16T22:56:36.955Z,55.23
2019-02-16T22:59:05.029Z,54.10
2019-02-16T23:01:33.017Z,51.97
2019-02-16T23:04:00.543Z,56.27
2019-02-16T23:06:28.260Z,55.23
2019-02-16T23:08:55.803Z,58.07
2019-02-16T23:11:23.398Z,81.73
2019-02-16T23:13:51.401Z,85.60
2019-02-16T23:16:18.967Z,78.47
2019-02-16T23:18:46.581Z,88.00
2019-02-16T23:21:14.366Z,86.23
2019-02-16T23:23:41.942Z,81.70
2019-02-16T23:26:09.528Z,84.80
2019-02-16T23:28:39.250Z,80.33
2019-02-16T23:31:06.578Z,69.53
2019-02-16T23:33:34.169Z,74.17
2019-02-16T23:36:01.746Z,83.73
2019-02-16T23:38:29.742Z,80.53
2019-02-16T23:40:57.513Z,92.97
2019-02-16T23:43:25.102Z,80.70
2019-02-16T23:45:52.791Z,73.93
2019-02-16T23:48:20.343Z,75.57
2019-02-16T23:50:47.902Z,75.53
2019-02-16T23:53:15.749Z,77.67
2019-02-16T23:55:43.354Z,82.20
2019-02-16T23:58:10.894Z,77.07
